sensor_id;sensor_type;location;lat;lon;timestamp;P1;durP1;ratioP1;P2;durP2;ratioP2
21315;SDS011;10817;55.820;13.030;2024-03-02T00:02:04;179.70;;;62.70;;
21315;SDS011;10817;55.820;13.030;2024-03-02T00:04:32;175.63;;;60.00;;
21315;SDS011;10817;55.820;13.030;2024-03-02T00:06:59;185.85;;;60.97;;
21315;SDS011;10817;55.820;13.030;2024-03-02T00:09:26;193.70;;;62.83;;
21315;SDS011;10817;55.820;13.030;2024-03-02T00:11:53;199.48;;;65.85;;
21315;SDS011;10817;55.820;13.030;2024-03-02T00:14:20;198.23;;;65.70;;
21315;SDS011;10817;55.820;13.030;2024-03-02T00:16:49;187.10;;;64.75;;
21315;SDS011;10817;55.820;13.030;2024-03-02T00:19:18;203.60;;;67.35;;
21315;SDS011;10817;55.820;13.030;2024-03-02T00:21:45;200.32;;;66.55;;
21315;SDS011;10817;55.820;13.030;2024-03-02T00:24:17;203.82;;;65.13;;
21315;SDS011;10817;55.820;13.030;2024-03-02T00:26:47;194.20;;;65.97;;
21315;SDS011;10817;55.820;13.030;2024-03-02T00:29:14;206.27;;;67.00;;
21315;SDS011;10817;55.820;13.030;2024-03-02T00:31:44;196.23;;;67.68;;
21315;SDS011;10817;55.820;13.030;2024-03-02T00:34:11;196.07;;;65.68;;
21315;SDS011;10817;55.820;13.030;2024-03-02T00:36:42;189.73;;;65.75;;
21315;SDS011;10817;55.820;13.030;2024-03-02T00:39:11;189.38;;;66.10;;
21315;SDS011;10817;55.820;13.030;2024-03-02T00:41:38;204.73;;;66.13;;
21315;SDS011;10817;55.820;13.030;2024-03-02T00:44:09;195.05;;;65.13;;
21315;SDS011;10817;55.820;13.030;2024-03-02T00:46:38;208.98;;;65.30;;
21315;SDS011;10817;55.820;13.030;2024-03-02T00:49:11;197.02;;;64.57;;
21315;SDS011;10817;55.820;13.030;2024-03-02T00:51:46;193.85;;;62.63;;
21315;SDS011;10817;55.820;13.030;2024-03-02T00:54:14;207.77;;;63.78;;
21315;SDS011;10817;55.820;13.030;2024-03-02T00:56:41;203.35;;;63.45;;
21315;SDS011;10817;55.820;13.030;2024-03-02T00:59:09;205.88;;;63.88;;
21315;SDS011;10817;55.820;13.030;2024-03-02T01:01:37;213.32;;;64.68;;
21315;SDS011;10817;55.820;13.030;2024-03-02T01:04:07;214.35;;;63.03;;
21315;SDS011;10817;55.820;13.030;2024-03-02T01:06:39;206.75;;;61.75;;
21315;SDS011;10817;55.820;13.030;2024-03-02T01:09:08;198.00;;;62.83;;
21315;SDS011;10817;55.820;13.030;2024-03-02T01:11:37;198.07;;;61.90;;
21315;SDS011;10817;55.820;13.030;2024-03-02T01:14:07;204.25;;;63.00;;
21315;SDS011;10817;55.820;13.030;2024-03-02T01:16:34;204.55;;;62.47;;
21315;SDS011;10817;55.820;13.030;2024-03-02T01:19:01;193.38;;;62.13;;
21315;SDS011;10817;55.820;13.030;2024-03-02T01:21:28;188.85;;;61.88;;
21315;SDS011;10817;55.820;13.030;2024-03-02T01:23:54;188.93;;;62.22;;
21315;SDS011;10817;55.820;13.030;2024-03-02T01:26:23;185.05;;;59.78;;
21315;SDS011;10817;55.820;13.030;2024-03-02T01:28:50;164.82;;;59.22;;
21315;SDS011;10817;55.820;13.030;2024-03-02T01:31:16;169.10;;;59.35;;
21315;SDS011;10817;55.820;13.030;2024-03-02T01:33:43;185.90;;;61.05;;
21315;SDS011;10817;55.820;13.030;2024-03-02T01:36:10;173.82;;;61.28;;
21315;SDS011;10817;55.820;13.030;2024-03-02T01:38:37;178.23;;;60.88;;
21315;SDS011;10817;55.820;13.030;2024-03-02T01:41:04;170.27;;;59.53;;
21315;SDS011;10817;55.820;13.030;2024-03-02T01:43:32;176.88;;;59.63;;
21315;SDS011;10817;55.820;13.030;2024-03-02T01:45:59;163.40;;;59.05;;
21315;SDS011;10817;55.820;13.030;2024-03-02T01:48:26;159.98;;;58.20;;
21315;SDS011;10817;55.820;13.030;2024-03-02T01:50:53;176.05;;;59.63;;
21315;SDS011;10817;55.820;13.030;2024-03-02T01:53:20;164.45;;;57.95;;
21315;SDS011;10817;55.820;13.030;2024-03-02T01:55:47;172.98;;;58.67;;
21315;SDS011;10817;55.820;13.030;2024-03-02T01:58:14;166.15;;;58.97;;
21315;SDS011;10817;55.820;13.030;2024-03-02T02:00:42;163.73;;;57.63;;
21315;SDS011;10817;55.820;13.030;2024-03-02T02:03:10;152.68;;;57.72;;
21315;SDS011;10817;55.820;13.030;2024-03-02T02:05:37;151.98;;;56.90;;
21315;SDS011;10817;55.820;13.030;2024-03-02T02:08:05;158.15;;;57.97;;
21315;SDS011;10817;55.820;13.030;2024-03-02T02:10:32;165.25;;;57.17;;
21315;SDS011;10817;55.820;13.030;2024-03-02T02:12:59;156.93;;;57.20;;
21315;SDS011;10817;55.820;13.030;2024-03-02T02:15:26;160.75;;;58.88;;
21315;SDS011;10817;55.820;13.030;2024-03-02T02:17:56;144.40;;;56.47;;
21315;SDS011;10817;55.820;13.030;2024-03-02T02:20:24;160.27;;;54.88;;
21315;SDS011;10817;55.820;13.030;2024-03-02T02:22:56;141.18;;;53.75;;
21315;SDS011;10817;55.820;13.030;2024-03-02T02:25:24;159.93;;;57.70;;
21315;SDS011;10817;55.820;13.030;2024-03-02T02:27:52;153.07;;;55.90;;
21315;SDS011;10817;55.820;13.030;2024-03-02T02:30:19;162.82;;;56.38;;
21315;SDS011;10817;55.820;13.030;2024-03-02T02:32:47;148.40;;;54.53;;
21315;SDS011;10817;55.820;13.030;2024-03-02T02:35:14;142.48;;;55.97;;
21315;SDS011;10817;55.820;13.030;2024-03-02T02:37:41;146.77;;;54.83;;
21315;SDS011;10817;55.820;13.030;2024-03-02T02:40:10;136.85;;;52.63;;
21315;SDS011;10817;55.820;13.030;2024-03-02T02:42:38;145.82;;;54.88;;
21315;SDS011;10817;55.820;13.030;2024-03-02T02:45:05;141.65;;;55.33;;
21315;SDS011;10817;55.820;13.030;2024-03-02T02:47:33;139.13;;;53.47;;
21315;SDS011;10817;55.820;13.030;2024-03-02T02:50:01;150.23;;;55.22;;
21315;SDS011;10817;55.820;13.030;2024-03-02T02:52:32;135.00;;;53.67;;
21315;SDS011;10817;55.820;13.030;2024-03-02T02:55:01;142.07;;;53.53;;
21315;SDS011;10817;55.820;13.030;2024-03-02T02:57:31;141.38;;;53.33;;
21315;SDS011;10817;55.820;13.030;2024-03-02T03:00:01;142.60;;;56.00;;
21315;SDS011;10817;55.820;13.030;2024-03-02T03:02:35;147.63;;;54.97;;
21315;SDS011;10817;55.820;13.030;2024-03-02T03:05:03;142.60;;;54.80;;
21315;SDS011;10817;55.820;13.030;2024-03-02T03:07:31;133.57;;;53.30;;
21315;SDS011;10817;55.820;13.030;2024-03-02T03:09:58;149.57;;;55.33;;
21315;SDS011;10817;55.820;13.030;2024-03-02T03:12:25;137.07;;;53.50;;
21315;SDS011;10817;55.820;13.030;2024-03-02T03:14:53;144.13;;;55.88;;
21315;SDS011;10817;55.820;13.030;2024-03-02T03:17:21;140.70;;;54.72;;
21315;SDS011;10817;55.820;13.030;2024-03-02T03:19:48;159.27;;;56.55;;
21315;SDS011;10817;55.820;13.030;2024-03-02T03:22:15;148.15;;;56.33;;
21315;SDS011;10817;55.820;13.030;2024-03-02T03:24:42;159.45;;;59.42;;
21315;SDS011;10817;55.820;13.030;2024-03-02T03:27:09;149.68;;;56.58;;
21315;SDS011;10817;55.820;13.030;2024-03-02T03:29:36;153.63;;;59.10;;
21315;SDS011;10817;55.820;13.030;2024-03-02T03:32:06;143.70;;;58.65;;
21315;SDS011;10817;55.820;13.030;2024-03-02T03:34:33;152.15;;;58.30;;
21315;SDS011;10817;55.820;13.030;2024-03-02T03:37:00;145.23;;;57.10;;
21315;SDS011;10817;55.820;13.030;2024-03-02T03:39:27;145.30;;;55.95;;
21315;SDS011;10817;55.820;13.030;2024-03-02T03:41:54;147.02;;;58.33;;
21315;SDS011;10817;55.820;13.030;2024-03-02T03:44:21;155.52;;;60.10;;
21315;SDS011;10817;55.820;13.030;2024-03-02T03:46:48;145.95;;;60.88;;
21315;SDS011;10817;55.820;13.030;2024-03-02T03:49:16;137.88;;;56.78;;
21315;SDS011;10817;55.820;13.030;2024-03-02T03:51:43;142.52;;;60.92;;
21315;SDS011;10817;55.820;13.030;2024-03-02T03:54:10;151.60;;;60.95;;
21315;SDS011;10817;55.820;13.030;2024-03-02T03:56:37;141.45;;;61.00;;
21315;SDS011;10817;55.820;13.030;2024-03-02T03:59:04;148.07;;;59.38;;
21315;SDS011;10817;55.820;13.030;2024-03-02T04:01:31;151.88;;;63.72;;
21315;SDS011;10817;55.820;13.030;2024-03-02T04:03:59;148.02;;;62.58;;
21315;SDS011;10817;55.820;13.030;2024-03-02T04:06:28;150.20;;;61.92;;
21315;SDS011;10817;55.820;13.030;2024-03-02T04:08:55;148.55;;;61.35;;
21315;SDS011;10817;55.820;13.030;2024-03-02T04:11:22;157.60;;;62.20;;
21315;SDS011;10817;55.820;13.030;2024-03-02T04:13:49;153.35;;;62.25;;
21315;SDS011;10817;55.820;13.030;2024-03-02T04:16:16;152.52;;;60.40;;
21315;SDS011;10817;55.820;13.030;2024-03-02T04:18:42;153.88;;;63.97;;
21315;SDS011;10817;55.820;13.030;2024-03-02T04:21:09;163.75;;;66.30;;
21315;SDS011;10817;55.820;13.030;2024-03-02T04:23:38;166.75;;;63.85;;
21315;SDS011;10817;55.820;13.030;2024-03-02T04:26:04;159.50;;;63.13;;
21315;SDS011;10817;55.820;13.030;2024-03-02T04:28:31;151.43;;;62.75;;
21315;SDS011;10817;55.820;13.030;2024-03-02T04:30:58;150.02;;;63.05;;
21315;SDS011;10817;55.820;13.030;2024-03-02T04:33:25;154.10;;;63.42;;
21315;SDS011;10817;55.820;13.030;2024-03-02T04:35:52;155.38;;;64.15;;
21315;SDS011;10817;55.820;13.030;2024-03-02T04:38:19;168.13;;;63.40;;
21315;SDS011;10817;55.820;13.030;2024-03-02T04:40:47;143.52;;;60.28;;
21315;SDS011;10817;55.820;13.030;2024-03-02T04:43:14;160.23;;;64.72;;
21315;SDS011;10817;55.820;13.030;2024-03-02T04:45:41;148.35;;;59.55;;
21315;SDS011;10817;55.820;13.030;2024-03-02T04:48:08;150.20;;;61.20;;
21315;SDS011;10817;55.820;13.030;2024-03-02T04:50:35;140.25;;;59.10;;
21315;SDS011;10817;55.820;13.030;2024-03-02T04:53:02;141.40;;;59.75;;
21315;SDS011;10817;55.820;13.030;2024-03-02T04:55:30;153.38;;;60.05;;
21315;SDS011;10817;55.820;13.030;2024-03-02T04:58:24;142.88;;;61.22;;
21315;SDS011;10817;55.820;13.030;2024-03-02T05:00:51;155.82;;;62.33;;
21315;SDS011;10817;55.820;13.030;2024-03-02T05:03:18;162.32;;;63.05;;
21315;SDS011;10817;55.820;13.030;2024-03-02T05:05:45;141.00;;;60.45;;
21315;SDS011;10817;55.820;13.030;2024-03-02T05:08:13;140.40;;;60.15;;
21315;SDS011;10817;55.820;13.030;2024-03-02T05:10:41;154.88;;;60.90;;
21315;SDS011;10817;55.820;13.030;2024-03-02T05:13:08;153.05;;;62.83;;
21315;SDS011;10817;55.820;13.030;2024-03-02T05:15:35;158.93;;;61.60;;
21315;SDS011;10817;55.820;13.030;2024-03-02T05:18:02;158.63;;;62.60;;
21315;SDS011;10817;55.820;13.030;2024-03-02T05:20:30;160.52;;;64.00;;
21315;SDS011;10817;55.820;13.030;2024-03-02T05:22:57;164.52;;;63.33;;
21315;SDS011;10817;55.820;13.030;2024-03-02T05:25:24;172.77;;;62.22;;
21315;SDS011;10817;55.820;13.030;2024-03-02T05:27:51;171.68;;;63.50;;
21315;SDS011;10817;55.820;13.030;2024-03-02T05:30:18;176.23;;;63.50;;
21315;SDS011;10817;55.820;13.030;2024-03-02T05:32:46;169.30;;;62.47;;
21315;SDS011;10817;55.820;13.030;2024-03-02T05:35:13;178.80;;;63.50;;
21315;SDS011;10817;55.820;13.030;2024-03-02T05:37:40;175.95;;;62.25;;
21315;SDS011;10817;55.820;13.030;2024-03-02T05:40:07;160.38;;;61.38;;
21315;SDS011;10817;55.820;13.030;2024-03-02T05:42:36;176.07;;;65.40;;
21315;SDS011;10817;55.820;13.030;2024-03-02T05:45:04;168.60;;;63.20;;
21315;SDS011;10817;55.820;13.030;2024-03-02T05:47:31;175.85;;;63.85;;
21315;SDS011;10817;55.820;13.030;2024-03-02T05:49:59;174.43;;;65.20;;
21315;SDS011;10817;55.820;13.030;2024-03-02T05:52:27;174.85;;;64.25;;
21315;SDS011;10817;55.820;13.030;2024-03-02T05:54:54;174.63;;;66.32;;
21315;SDS011;10817;55.820;13.030;2024-03-02T05:57:21;170.73;;;65.00;;
21315;SDS011;10817;55.820;13.030;2024-03-02T06:00:10;184.05;;;65.13;;
21315;SDS011;10817;55.820;13.030;2024-03-02T06:02:40;191.05;;;67.10;;
21315;SDS011;10817;55.820;13.030;2024-03-02T06:05:09;200.15;;;69.65;;
21315;SDS011;10817;55.820;13.030;2024-03-02T06:07:36;174.60;;;64.82;;
21315;SDS011;10817;55.820;13.030;2024-03-02T06:10:03;193.40;;;65.97;;
21315;SDS011;10817;55.820;13.030;2024-03-02T06:12:32;186.77;;;64.15;;
21315;SDS011;10817;55.820;13.030;2024-03-02T06:14:59;195.77;;;71.10;;
21315;SDS011;10817;55.820;13.030;2024-03-02T06:17:26;192.48;;;68.97;;
21315;SDS011;10817;55.820;13.030;2024-03-02T06:19:53;191.98;;;68.28;;
21315;SDS011;10817;55.820;13.030;2024-03-02T06:22:21;186.60;;;67.18;;
21315;SDS011;10817;55.820;13.030;2024-03-02T06:24:50;191.80;;;68.95;;
21315;SDS011;10817;55.820;13.030;2024-03-02T06:27:17;193.75;;;69.70;;
21315;SDS011;10817;55.820;13.030;2024-03-02T06:29:43;194.48;;;68.32;;
21315;SDS011;10817;55.820;13.030;2024-03-02T06:32:10;205.15;;;68.90;;
21315;SDS011;10817;55.820;13.030;2024-03-02T06:34:37;201.25;;;69.55;;
21315;SDS011;10817;55.820;13.030;2024-03-02T06:37:04;199.30;;;68.70;;
21315;SDS011;10817;55.820;13.030;2024-03-02T06:39:32;200.52;;;69.68;;
21315;SDS011;10817;55.820;13.030;2024-03-02T06:41:59;200.52;;;72.82;;
21315;SDS011;10817;55.820;13.030;2024-03-02T06:44:26;218.93;;;73.32;;
21315;SDS011;10817;55.820;13.030;2024-03-02T06:46:53;212.50;;;72.25;;
21315;SDS011;10817;55.820;13.030;2024-03-02T06:49:20;188.25;;;67.43;;
21315;SDS011;10817;55.820;13.030;2024-03-02T06:51:47;198.43;;;68.32;;
21315;SDS011;10817;55.820;13.030;2024-03-02T06:54:15;204.27;;;72.35;;
21315;SDS011;10817;55.820;13.030;2024-03-02T06:56:43;211.77;;;74.15;;
21315;SDS011;10817;55.820;13.030;2024-03-02T06:59:10;231.25;;;75.47;;
21315;SDS011;10817;55.820;13.030;2024-03-02T07:01:37;224.02;;;72.45;;
21315;SDS011;10817;55.820;13.030;2024-03-02T07:04:04;224.18;;;76.05;;
21315;SDS011;10817;55.820;13.030;2024-03-02T07:06:31;226.30;;;77.03;;
21315;SDS011;10817;55.820;13.030;2024-03-02T07:08:58;215.45;;;72.88;;
21315;SDS011;10817;55.820;13.030;2024-03-02T07:11:25;215.45;;;73.65;;
21315;SDS011;10817;55.820;13.030;2024-03-02T07:13:53;217.48;;;72.00;;
21315;SDS011;10817;55.820;13.030;2024-03-02T07:16:20;216.45;;;72.90;;
21315;SDS011;10817;55.820;13.030;2024-03-02T07:18:53;224.55;;;75.03;;
21315;SDS011;10817;55.820;13.030;2024-03-02T07:21:21;199.63;;;71.07;;
21315;SDS011;10817;55.820;13.030;2024-03-02T07:23:49;203.73;;;72.65;;
21315;SDS011;10817;55.820;13.030;2024-03-02T07:26:16;192.63;;;70.68;;
21315;SDS011;10817;55.820;13.030;2024-03-02T07:28:44;197.75;;;72.68;;
21315;SDS011;10817;55.820;13.030;2024-03-02T07:31:14;183.45;;;69.68;;
21315;SDS011;10817;55.820;13.030;2024-03-02T07:33:43;181.05;;;70.25;;
21315;SDS011;10817;55.820;13.030;2024-03-02T07:36:10;180.30;;;70.28;;
21315;SDS011;10817;55.820;13.030;2024-03-02T07:38:37;184.52;;;67.53;;
21315;SDS011;10817;55.820;13.030;2024-03-02T07:41:05;181.18;;;67.30;;
21315;SDS011;10817;55.820;13.030;2024-03-02T07:43:32;173.35;;;66.32;;
21315;SDS011;10817;55.820;13.030;2024-03-02T07:45:59;166.10;;;67.50;;
21315;SDS011;10817;55.820;13.030;2024-03-02T07:48:29;170.25;;;68.63;;
21315;SDS011;10817;55.820;13.030;2024-03-02T07:50:56;168.30;;;66.78;;
21315;SDS011;10817;55.820;13.030;2024-03-02T07:53:23;150.75;;;64.00;;
21315;SDS011;10817;55.820;13.030;2024-03-02T07:55:50;154.52;;;63.78;;
21315;SDS011;10817;55.820;13.030;2024-03-02T07:58:17;143.05;;;62.35;;
21315;SDS011;10817;55.820;13.030;2024-03-02T08:00:44;147.07;;;60.50;;
21315;SDS011;10817;55.820;13.030;2024-03-02T08:03:12;142.23;;;62.60;;
21315;SDS011;10817;55.820;13.030;2024-03-02T08:05:41;145.88;;;61.05;;
21315;SDS011;10817;55.820;13.030;2024-03-02T08:08:08;137.38;;;58.42;;
21315;SDS011;10817;55.820;13.030;2024-03-02T08:10:35;126.18;;;57.60;;
21315;SDS011;10817;55.820;13.030;2024-03-02T08:13:02;121.75;;;57.95;;
21315;SDS011;10817;55.820;13.030;2024-03-02T08:15:29;134.35;;;57.15;;
21315;SDS011;10817;55.820;13.030;2024-03-02T08:17:56;124.78;;;55.97;;
21315;SDS011;10817;55.820;13.030;2024-03-02T08:20:23;120.45;;;55.65;;
21315;SDS011;10817;55.820;13.030;2024-03-02T08:22:51;111.63;;;54.97;;
21315;SDS011;10817;55.820;13.030;2024-03-02T08:25:20;114.03;;;52.88;;
21315;SDS011;10817;55.820;13.030;2024-03-02T08:27:47;117.50;;;53.97;;
21315;SDS011;10817;55.820;13.030;2024-03-02T08:30:14;110.55;;;52.17;;
21315;SDS011;10817;55.820;13.030;2024-03-02T08:32:41;129.70;;;54.45;;
21315;SDS011;10817;55.820;13.030;2024-03-02T08:35:08;107.85;;;51.60;;
21315;SDS011;10817;55.820;13.030;2024-03-02T08:37:35;117.38;;;53.15;;
21315;SDS011;10817;55.820;13.030;2024-03-02T08:40:07;123.07;;;54.10;;
21315;SDS011;10817;55.820;13.030;2024-03-02T08:42:35;121.07;;;52.25;;
21315;SDS011;10817;55.820;13.030;2024-03-02T08:45:02;119.30;;;53.67;;
21315;SDS011;10817;55.820;13.030;2024-03-02T08:47:30;124.55;;;53.00;;
21315;SDS011;10817;55.820;13.030;2024-03-02T08:49:57;121.75;;;53.53;;
21315;SDS011;10817;55.820;13.030;2024-03-02T08:52:24;127.93;;;53.72;;
21315;SDS011;10817;55.820;13.030;2024-03-02T08:54:51;118.22;;;51.78;;
21315;SDS011;10817;55.820;13.030;2024-03-02T08:57:19;122.80;;;53.40;;
21315;SDS011;10817;55.820;13.030;2024-03-02T08:59:46;113.63;;;52.13;;
21315;SDS011;10817;55.820;13.030;2024-03-02T09:02:13;115.70;;;50.92;;
21315;SDS011;10817;55.820;13.030;2024-03-02T09:04:40;110.15;;;52.17;;
21315;SDS011;10817;55.820;13.030;2024-03-02T09:07:07;109.28;;;47.60;;
21315;SDS011;10817;55.820;13.030;2024-03-02T09:09:34;104.60;;;49.33;;
21315;SDS011;10817;55.820;13.030;2024-03-02T09:12:01;100.25;;;48.35;;
21315;SDS011;10817;55.820;13.030;2024-03-02T09:14:29;101.53;;;47.95;;
21315;SDS011;10817;55.820;13.030;2024-03-02T09:16:56;102.70;;;48.75;;
21315;SDS011;10817;55.820;13.030;2024-03-02T09:19:23;101.45;;;46.75;;
21315;SDS011;10817;55.820;13.030;2024-03-02T09:21:50;91.40;;;45.03;;
21315;SDS011;10817;55.820;13.030;2024-03-02T09:24:17;95.22;;;45.80;;
21315;SDS011;10817;55.820;13.030;2024-03-02T09:26:44;89.32;;;44.95;;
21315;SDS011;10817;55.820;13.030;2024-03-02T09:29:11;95.28;;;44.00;;
21315;SDS011;10817;55.820;13.030;2024-03-02T09:31:40;93.32;;;44.60;;
21315;SDS011;10817;55.820;13.030;2024-03-02T09:34:07;83.75;;;42.63;;
21315;SDS011;10817;55.820;13.030;2024-03-02T09:36:34;92.80;;;44.55;;
21315;SDS011;10817;55.820;13.030;2024-03-02T09:39:01;91.32;;;44.60;;
21315;SDS011;10817;55.820;13.030;2024-03-02T09:41:29;87.03;;;44.88;;
21315;SDS011;10817;55.820;13.030;2024-03-02T09:43:56;91.75;;;43.72;;
21315;SDS011;10817;55.820;13.030;2024-03-02T09:46:23;91.43;;;44.15;;
21315;SDS011;10817;55.820;13.030;2024-03-02T09:48:52;85.90;;;42.13;;
21315;SDS011;10817;55.820;13.030;2024-03-02T09:51:19;81.07;;;42.55;;
21315;SDS011;10817;55.820;13.030;2024-03-02T09:53:46;85.05;;;41.17;;
21315;SDS011;10817;55.820;13.030;2024-03-02T09:56:13;83.07;;;42.65;;
21315;SDS011;10817;55.820;13.030;2024-03-02T09:58:41;84.15;;;42.05;;
21315;SDS011;10817;55.820;13.030;2024-03-02T10:01:09;84.97;;;40.65;;
21315;SDS011;10817;55.820;13.030;2024-03-02T10:03:36;75.82;;;39.70;;
21315;SDS011;10817;55.820;13.030;2024-03-02T10:06:21;86.40;;;40.63;;
21315;SDS011;10817;55.820;13.030;2024-03-02T10:08:49;74.20;;;38.88;;
21315;SDS011;10817;55.820;13.030;2024-03-02T10:11:26;77.28;;;39.85;;
21315;SDS011;10817;55.820;13.030;2024-03-02T10:14:04;81.32;;;40.10;;
21315;SDS011;10817;55.820;13.030;2024-03-02T10:16:33;81.50;;;41.10;;
21315;SDS011;10817;55.820;13.030;2024-03-02T10:21:47;83.70;;;40.90;;
21315;SDS011;10817;55.820;13.030;2024-03-02T10:24:15;88.03;;;41.83;;
21315;SDS011;10817;55.820;13.030;2024-03-02T10:26:42;92.22;;;42.88;;
21315;SDS011;10817;55.820;13.030;2024-03-02T10:29:09;98.03;;;43.80;;
21315;SDS011;10817;55.820;13.030;2024-03-02T10:31:37;99.88;;;44.72;;
21315;SDS011;10817;55.820;13.030;2024-03-02T10:34:09;102.95;;;45.92;;
21315;SDS011;10817;55.820;13.030;2024-03-02T10:36:41;111.10;;;48.92;;
21315;SDS011;10817;55.820;13.030;2024-03-02T10:39:12;109.90;;;48.60;;
21315;SDS011;10817;55.820;13.030;2024-03-02T10:41:43;110.43;;;46.95;;
21315;SDS011;10817;55.820;13.030;2024-03-02T10:44:14;113.25;;;47.50;;
21315;SDS011;10817;55.820;13.030;2024-03-02T10:46:42;115.63;;;49.58;;
21315;SDS011;10817;55.820;13.030;2024-03-02T10:49:11;119.88;;;49.30;;
21315;SDS011;10817;55.820;13.030;2024-03-02T10:51:41;119.07;;;51.45;;
21315;SDS011;10817;55.820;13.030;2024-03-02T10:54:14;126.20;;;50.90;;
21315;SDS011;10817;55.820;13.030;2024-03-02T10:56:51;132.65;;;52.70;;
21315;SDS011;10817;55.820;13.030;2024-03-02T10:59:22;120.95;;;49.25;;
21315;SDS011;10817;55.820;13.030;2024-03-02T11:02:02;121.25;;;50.17;;
21315;SDS011;10817;55.820;13.030;2024-03-02T11:04:34;119.72;;;50.13;;
21315;SDS011;10817;55.820;13.030;2024-03-02T11:07:02;127.25;;;51.50;;
21315;SDS011;10817;55.820;13.030;2024-03-02T11:09:33;123.28;;;51.25;;
21315;SDS011;10817;55.820;13.030;2024-03-02T11:12:02;133.25;;;53.70;;
21315;SDS011;10817;55.820;13.030;2024-03-02T11:14:45;133.10;;;52.45;;
21315;SDS011;10817;55.820;13.030;2024-03-02T11:17:13;129.07;;;52.65;;
21315;SDS011;10817;55.820;13.030;2024-03-02T11:19:40;128.10;;;54.72;;
21315;SDS011;10817;55.820;13.030;2024-03-02T11:22:08;139.75;;;54.60;;
21315;SDS011;10817;55.820;13.030;2024-03-02T11:24:38;129.77;;;52.42;;
21315;SDS011;10817;55.820;13.030;2024-03-02T11:27:05;140.20;;;55.10;;
21315;SDS011;10817;55.820;13.030;2024-03-02T11:29:42;141.85;;;53.20;;
21315;SDS011;10817;55.820;13.030;2024-03-02T11:32:13;130.20;;;53.88;;
21315;SDS011;10817;55.820;13.030;2024-03-02T11:34:42;129.70;;;52.67;;
21315;SDS011;10817;55.820;13.030;2024-03-02T11:37:12;130.18;;;51.97;;
21315;SDS011;10817;55.820;13.030;2024-03-02T11:39:41;126.00;;;49.80;;
21315;SDS011;10817;55.820;13.030;2024-03-02T11:42:09;105.65;;;46.13;;
21315;SDS011;10817;55.820;13.030;2024-03-02T11:44:39;112.10;;;44.45;;
21315;SDS011;10817;55.820;13.030;2024-03-02T11:47:08;91.43;;;40.70;;
21315;SDS011;10817;55.820;13.030;2024-03-02T11:49:39;96.78;;;41.90;;
21315;SDS011;10817;55.820;13.030;2024-03-02T11:52:08;94.07;;;41.80;;
21315;SDS011;10817;55.820;13.030;2024-03-02T11:54:36;87.30;;;40.55;;
21315;SDS011;10817;55.820;13.030;2024-03-02T11:57:07;90.75;;;40.35;;
21315;SDS011;10817;55.820;13.030;2024-03-02T11:59:34;95.18;;;42.05;;
21315;SDS011;10817;55.820;13.030;2024-03-02T12:02:01;90.40;;;39.40;;
21315;SDS011;10817;55.820;13.030;2024-03-02T12:04:29;84.25;;;39.28;;
21315;SDS011;10817;55.820;13.030;2024-03-02T12:06:58;83.63;;;38.78;;
21315;SDS011;10817;55.820;13.030;2024-03-02T12:09:28;83.53;;;37.88;;
21315;SDS011;10817;55.820;13.030;2024-03-02T12:12:02;82.15;;;37.20;;
21315;SDS011;10817;55.820;13.030;2024-03-02T12:14:32;81.47;;;38.28;;
21315;SDS011;10817;55.820;13.030;2024-03-02T12:17:00;84.50;;;37.05;;
21315;SDS011;10817;55.820;13.030;2024-03-02T12:19:28;79.53;;;37.38;;
21315;SDS011;10817;55.820;13.030;2024-03-02T12:21:55;84.40;;;36.88;;
21315;SDS011;10817;55.820;13.030;2024-03-02T12:24:22;86.50;;;38.83;;
21315;SDS011;10817;55.820;13.030;2024-03-02T12:26:50;88.90;;;39.80;;
21315;SDS011;10817;55.820;13.030;2024-03-02T12:29:18;82.95;;;37.30;;
21315;SDS011;10817;55.820;13.030;2024-03-02T12:31:48;84.45;;;39.20;;
21315;SDS011;10817;55.820;13.030;2024-03-02T12:34:16;89.15;;;40.10;;
21315;SDS011;10817;55.820;13.030;2024-03-02T12:36:44;91.75;;;38.85;;
21315;SDS011;10817;55.820;13.030;2024-03-02T12:39:14;85.70;;;38.97;;
21315;SDS011;10817;55.820;13.030;2024-03-02T12:41:41;84.60;;;39.05;;
21315;SDS011;10817;55.820;13.030;2024-03-02T12:44:08;86.20;;;38.45;;
21315;SDS011;10817;55.820;13.030;2024-03-02T12:46:35;95.45;;;40.92;;
21315;SDS011;10817;55.820;13.030;2024-03-02T12:49:08;93.68;;;41.28;;
21315;SDS011;10817;55.820;13.030;2024-03-02T12:51:37;107.38;;;41.38;;
21315;SDS011;10817;55.820;13.030;2024-03-02T12:54:05;103.30;;;43.65;;
21315;SDS011;10817;55.820;13.030;2024-03-02T12:56:32;114.97;;;42.67;;
21315;SDS011;10817;55.820;13.030;2024-03-02T12:59:00;106.25;;;43.08;;
21315;SDS011;10817;55.820;13.030;2024-03-02T13:01:27;101.38;;;42.28;;
21315;SDS011;10817;55.820;13.030;2024-03-02T13:03:54;109.22;;;41.17;;
21315;SDS011;10817;55.820;13.030;2024-03-02T13:06:23;106.35;;;43.63;;
21315;SDS011;10817;55.820;13.030;2024-03-02T13:08:53;102.50;;;43.83;;
21315;SDS011;10817;55.820;13.030;2024-03-02T13:11:20;102.50;;;43.45;;
21315;SDS011;10817;55.820;13.030;2024-03-02T13:13:48;120.35;;;45.70;;
21315;SDS011;10817;55.820;13.030;2024-03-02T13:16:15;119.68;;;45.92;;
21315;SDS011;10817;55.820;13.030;2024-03-02T13:18:44;111.72;;;44.13;;
21315;SDS011;10817;55.820;13.030;2024-03-02T13:21:11;129.43;;;47.28;;
21315;SDS011;10817;55.820;13.030;2024-03-02T13:23:40;125.68;;;47.25;;
21315;SDS011;10817;55.820;13.030;2024-03-02T13:26:07;123.05;;;48.25;;
21315;SDS011;10817;55.820;13.030;2024-03-02T13:28:36;138.75;;;48.92;;
21315;SDS011;10817;55.820;13.030;2024-03-02T13:31:04;120.45;;;45.38;;
21315;SDS011;10817;55.820;13.030;2024-03-02T13:33:32;127.05;;;46.65;;
21315;SDS011;10817;55.820;13.030;2024-03-02T13:35:58;113.55;;;45.30;;
21315;SDS011;10817;55.820;13.030;2024-03-02T13:38:26;135.55;;;49.38;;
21315;SDS011;10817;55.820;13.030;2024-03-02T13:40:55;117.68;;;49.90;;
21315;SDS011;10817;55.820;13.030;2024-03-02T13:43:29;134.38;;;49.85;;
21315;SDS011;10817;55.820;13.030;2024-03-02T13:46:03;134.85;;;51.25;;
21315;SDS011;10817;55.820;13.030;2024-03-02T13:48:45;142.15;;;52.67;;
21315;SDS011;10817;55.820;13.030;2024-03-02T13:51:16;142.73;;;52.83;;
21315;SDS011;10817;55.820;13.030;2024-03-02T13:53:50;149.05;;;55.72;;
21315;SDS011;10817;55.820;13.030;2024-03-02T13:56:18;148.15;;;54.17;;
21315;SDS011;10817;55.820;13.030;2024-03-02T13:58:45;152.98;;;57.25;;
21315;SDS011;10817;55.820;13.030;2024-03-02T14:01:16;160.98;;;58.92;;
21315;SDS011;10817;55.820;13.030;2024-03-02T14:03:45;154.77;;;58.30;;
21315;SDS011;10817;55.820;13.030;2024-03-02T14:06:13;155.80;;;58.90;;
21315;SDS011;10817;55.820;13.030;2024-03-02T14:08:40;174.10;;;58.92;;